createdAt,value
2024-01-31T00:00:54.581Z,48.10
2024-01-31T00:03:23.328Z,48.10
2024-01-31T00:05:53.222Z,48.00
2024-01-31T00:08:24.975Z,47.80
2024-01-31T00:11:04.467Z,48.00
2024-01-31T00:13:34.210Z,48.20
2024-01-31T00:16:23.991Z,48.00
2024-01-31T00:22:52.439Z,48.00
2024-01-31T00:25:23.072Z,47.80
2024-01-31T00:27:51.798Z,47.90
2024-01-31T00:30:20.849Z,47.90
2024-01-31T00:32:50.040Z,48.10
2024-01-31T00:35:19.857Z,48.00
2024-01-31T00:37:49.110Z,48.30
2024-01-31T00:40:20.974Z,48.20
2024-01-31T00:43:11.643Z,48.20
2024-01-31T00:45:41.284Z,48.20
2024-01-31T00:48:10.950Z,48.30
2024-01-31T00:50:39.982Z,48.60
2024-01-31T00:53:13.386Z,48.10
2024-01-31T00:55:42.523Z,48.40
2024-01-31T00:58:14.959Z,48.70
2024-01-31T01:00:56.114Z,48.50
2024-01-31T01:03:25.488Z,48.50
2024-01-31T01:06:12.535Z,48.40
2024-01-31T01:08:42.372Z,48.50
2024-01-31T01:11:13.206Z,48.60
2024-01-31T01:13:43.542Z,48.90
2024-01-31T01:16:13.785Z,48.70
2024-01-31T01:18:43.438Z,48.60
2024-01-31T01:21:15.492Z,48.60
2024-01-31T01:23:46.071Z,48.80
2024-01-31T01:26:28.695Z,48.60
2024-01-31T01:29:18.223Z,48.80
2024-01-31T01:31:47.050Z,48.60
2024-01-31T01:34:35.196Z,48.70
2024-01-31T01:37:03.976Z,48.50
2024-01-31T01:39:32.592Z,48.80
2024-01-31T01:42:02.282Z,48.60
2024-01-31T01:44:34.447Z,48.40
2024-01-31T01:47:20.748Z,48.70
2024-01-31T01:49:51.144Z,48.90
2024-01-31T01:52:20.872Z,48.90
2024-01-31T01:54:50.252Z,48.50
2024-01-31T01:57:19.957Z,48.60
2024-01-31T02:00:00.022Z,49.00
2024-01-31T02:02:30.582Z,48.90
2024-01-31T02:05:01.162Z,49.00
2024-01-31T02:07:32.188Z,49.10
2024-01-31T02:10:02.581Z,49.20
2024-01-31T02:12:33.020Z,48.90
2024-01-31T02:15:02.877Z,49.10
2024-01-31T02:17:34.907Z,49.20
2024-01-31T02:20:04.556Z,49.10
2024-01-31T02:22:56.588Z,49.30
2024-01-31T02:25:26.959Z,48.80
2024-01-31T02:27:58.556Z,48.90
2024-01-31T02:30:28.334Z,49.40
2024-01-31T02:32:58.060Z,48.90
2024-01-31T02:35:29.586Z,48.80
2024-01-31T02:38:00.946Z,48.70
2024-01-31T02:40:35.134Z,48.90
2024-01-31T02:43:04.252Z,48.70
2024-01-31T02:45:37.425Z,49.00
2024-01-31T02:48:24.125Z,49.20
2024-01-31T02:50:53.081Z,49.10
2024-01-31T02:53:27.470Z,49.30
2024-01-31T02:56:02.947Z,49.20
2024-01-31T02:58:33.185Z,49.50
2024-01-31T03:01:02.246Z,49.10
2024-01-31T03:03:31.380Z,49.10
2024-01-31T03:06:00.365Z,49.40
2024-01-31T03:08:49.731Z,49.40
2024-01-31T03:11:22.733Z,49.60
2024-01-31T03:13:55.184Z,49.40
2024-01-31T03:16:33.592Z,49.50
2024-01-31T03:19:02.362Z,49.30
2024-01-31T03:21:31.444Z,49.20
2024-01-31T03:24:13.577Z,49.50
2024-01-31T03:26:44.085Z,49.40
2024-01-31T03:29:12.932Z,49.50
2024-01-31T03:31:42.756Z,49.50
2024-01-31T03:34:18.695Z,49.80
2024-01-31T03:36:47.671Z,50.00
2024-01-31T03:39:20.294Z,49.80
2024-01-31T03:41:51.271Z,49.70
2024-01-31T03:44:20.171Z,49.90
2024-01-31T03:46:51.312Z,49.60
2024-01-31T03:49:20.179Z,49.50
2024-01-31T03:51:49.300Z,50.20
2024-01-31T03:54:23.483Z,50.30
2024-01-31T03:56:52.484Z,50.70
2024-01-31T03:59:21.521Z,50.40
2024-01-31T04:01:52.858Z,50.50
2024-01-31T04:04:21.841Z,50.70
2024-01-31T04:06:50.862Z,50.60
2024-01-31T04:09:23.059Z,50.90
2024-01-31T04:11:52.146Z,51.00
2024-01-31T04:14:36.703Z,50.50
2024-01-31T04:17:06.100Z,50.40
2024-01-31T04:19:37.169Z,51.20
2024-01-31T04:22:19.159Z,51.30
2024-01-31T04:24:49.850Z,51.30
2024-01-31T04:27:19.227Z,51.00
2024-01-31T04:29:49.584Z,51.50
2024-01-31T04:32:37.780Z,50.80
2024-01-31T04:35:18.514Z,51.70
2024-01-31T04:37:47.332Z,51.80
2024-01-31T04:40:17.836Z,51.70
2024-01-31T04:42:50.462Z,51.70
2024-01-31T04:45:26.599Z,51.90
2024-01-31T04:47:58.424Z,52.20
2024-01-31T04:50:27.074Z,52.10
2024-01-31T04:52:58.470Z,52.10
2024-01-31T04:55:30.503Z,52.20
2024-01-31T04:58:01.493Z,52.60
2024-01-31T05:00:32.884Z,52.20
2024-01-31T05:03:04.259Z,52.30
2024-01-31T05:05:36.035Z,52.30
2024-01-31T05:08:08.470Z,52.40
2024-01-31T05:10:39.584Z,52.50
2024-01-31T05:13:13.035Z,52.80
2024-01-31T05:15:43.637Z,52.40
2024-01-31T05:18:15.989Z,52.50
2024-01-31T05:20:45.459Z,52.30
2024-01-31T05:23:16.839Z,52.40
2024-01-31T05:25:48.454Z,52.60
2024-01-31T05:28:18.451Z,52.20
2024-01-31T05:30:47.525Z,52.30
2024-01-31T05:33:18.987Z,52.80
2024-01-31T05:35:49.143Z,52.60
2024-01-31T05:38:20.529Z,52.40
2024-01-31T05:40:52.098Z,52.20
2024-01-31T05:43:22.330Z,52.30
2024-01-31T05:45:51.635Z,52.30
2024-01-31T05:48:23.028Z,52.50
2024-01-31T05:50:53.197Z,52.00
2024-01-31T05:53:24.407Z,52.30
2024-01-31T05:55:56.928Z,52.20
2024-01-31T05:58:28.723Z,52.00
2024-01-31T06:00:59.018Z,52.20
2024-01-31T06:03:29.662Z,51.70
2024-01-31T06:05:59.816Z,51.70
2024-01-31T06:08:29.432Z,51.90
2024-01-31T06:11:04.694Z,51.60
2024-01-31T06:13:41.214Z,51.60
2024-01-31T06:16:11.867Z,51.80
2024-01-31T06:18:40.815Z,51.60
2024-01-31T06:21:12.244Z,51.60
2024-01-31T06:23:47.818Z,51.70
2024-01-31T06:26:19.133Z,51.60
2024-01-31T06:28:50.846Z,51.80
2024-01-31T06:31:28.812Z,51.60
2024-01-31T06:34:00.466Z,51.70
2024-01-31T06:36:40.969Z,52.00
2024-01-31T06:39:10.550Z,51.90
2024-01-31T06:41:41.963Z,51.80
2024-01-31T06:44:10.538Z,51.90
2024-01-31T06:46:39.792Z,51.90
2024-01-31T06:49:08.856Z,52.10
2024-01-31T06:51:53.547Z,52.10
2024-01-31T06:54:23.098Z,52.10
2024-01-31T06:56:53.197Z,52.10
2024-01-31T06:59:21.804Z,52.60
2024-01-31T07:01:54.033Z,52.80
2024-01-31T07:04:22.793Z,52.10
2024-01-31T07:06:53.373Z,52.50
2024-01-31T07:09:21.990Z,52.10
2024-01-31T07:11:52.816Z,52.10
2024-01-31T07:14:27.827Z,52.10
2024-01-31T07:16:59.590Z,52.00
2024-01-31T07:19:29.008Z,51.70
2024-01-31T07:21:58.034Z,51.70
2024-01-31T07:24:30.174Z,51.90
2024-01-31T07:27:04.214Z,51.90
2024-01-31T07:29:33.067Z,52.00
2024-01-31T07:32:02.559Z,52.00
2024-01-31T07:34:51.434Z,51.60
2024-01-31T07:37:20.102Z,52.10
2024-01-31T07:39:49.864Z,51.90
2024-01-31T07:42:19.940Z,52.10
2024-01-31T07:44:48.327Z,52.30
2024-01-31T07:47:23.487Z,52.60
2024-01-31T07:49:52.417Z,52.50
2024-01-31T07:52:21.023Z,52.20
2024-01-31T07:54:49.866Z,52.50
2024-01-31T07:57:19.834Z,52.30
2024-01-31T07:59:52.514Z,52.40
2024-01-31T08:02:22.502Z,52.10
2024-01-31T08:04:52.704Z,52.40
2024-01-31T08:07:21.169Z,52.50
2024-01-31T08:09:51.220Z,52.30
2024-01-31T08:12:24.780Z,52.30
2024-01-31T08:14:55.019Z,52.10
2024-01-31T08:17:23.971Z,51.70
2024-01-31T08:20:00.991Z,51.90
2024-01-31T08:22:29.800Z,52.20
2024-01-31T08:24:58.751Z,51.90
2024-01-31T08:27:29.697Z,51.90
2024-01-31T08:29:58.709Z,52.00
2024-01-31T08:32:37.012Z,51.70
2024-01-31T08:35:08.053Z,51.70
2024-01-31T08:37:36.918Z,51.60
2024-01-31T08:40:08.788Z,51.50
2024-01-31T08:42:41.399Z,51.90
2024-01-31T08:45:11.949Z,52.10
2024-01-31T08:47:40.771Z,52.00
2024-01-31T08:50:12.450Z,51.90
2024-01-31T08:52:41.663Z,52.10
2024-01-31T08:55:13.698Z,51.70
2024-01-31T08:57:43.993Z,51.60
2024-01-31T09:00:14.262Z,51.40
2024-01-31T09:02:46.441Z,51.70
2024-01-31T09:05:15.149Z,51.20
2024-01-31T09:07:44.339Z,51.40
2024-01-31T09:10:13.134Z,51.20
2024-01-31T09:13:02.662Z,51.10
2024-01-31T09:15:36.852Z,50.90
2024-01-31T09:18:14.244Z,50.80
2024-01-31T09:20:43.242Z,50.90
2024-01-31T09:23:13.652Z,51.00
2024-01-31T09:25:43.804Z,50.80
2024-01-31T09:28:13.931Z,50.70
2024-01-31T09:30:45.631Z,50.80
2024-01-31T09:33:14.479Z,50.90
2024-01-31T09:35:43.258Z,50.60
2024-01-31T09:38:13.023Z,50.90
2024-01-31T09:40:45.432Z,50.60
2024-01-31T09:43:15.566Z,50.90
2024-01-31T09:45:45.668Z,50.60
2024-01-31T09:48:16.366Z,50.20
2024-01-31T09:50:48.967Z,50.40
2024-01-31T09:53:17.584Z,50.40
2024-01-31T09:55:48.971Z,50.30
2024-01-31T09:58:20.874Z,50.10
2024-01-31T10:00:55.908Z,50.50
2024-01-31T10:03:26.678Z,50.10
2024-01-31T10:05:56.962Z,50.20
2024-01-31T10:08:30.303Z,50.10
2024-01-31T10:10:59.342Z,50.40
2024-01-31T10:13:32.114Z,49.80
2024-01-31T10:16:03.901Z,50.50
2024-01-31T10:18:32.993Z,50.10
2024-01-31T10:21:03.084Z,50.50
2024-01-31T10:23:33.801Z,50.30
2024-01-31T10:26:03.727Z,50.30
2024-01-31T10:29:03.587Z,50.40
2024-01-31T10:31:38.092Z,50.40
2024-01-31T10:34:09.786Z,50.00
2024-01-31T10:37:26.934Z,50.30
2024-01-31T10:39:34.796Z,50.10
2024-01-31T10:42:03.824Z,50.10
2024-01-31T10:44:49.051Z,50.10
2024-01-31T10:47:17.871Z,50.10
2024-01-31T10:49:47.512Z,50.00
2024-01-31T10:52:25.547Z,49.90
2024-01-31T10:55:00.633Z,50.20
2024-01-31T10:57:43.866Z,50.00
2024-01-31T11:00:26.529Z,49.90
2024-01-31T11:02:58.166Z,49.90
2024-01-31T11:05:28.348Z,49.80
2024-01-31T11:07:58.484Z,49.40
2024-01-31T11:10:29.021Z,49.50
2024-01-31T11:13:03.289Z,49.30
2024-01-31T11:15:35.544Z,49.40
2024-01-31T11:18:08.396Z,49.60
2024-01-31T11:20:38.295Z,49.40
2024-01-31T11:23:09.494Z,49.50
2024-01-31T11:25:39.136Z,48.80
2024-01-31T11:28:08.557Z,49.30
2024-01-31T11:30:41.660Z,49.00
2024-01-31T11:33:12.287Z,49.00
2024-01-31T11:35:42.741Z,49.30
2024-01-31T11:38:11.436Z,48.80
2024-01-31T11:40:43.487Z,49.20
2024-01-31T11:43:13.153Z,48.90
2024-01-31T11:45:42.850Z,48.90
2024-01-31T11:48:16.448Z,48.30
2024-01-31T11:51:05.976Z,48.60
2024-01-31T11:53:35.030Z,48.40
2024-01-31T11:56:04.738Z,48.40
2024-01-31T11:58:36.690Z,48.60
2024-01-31T12:01:08.273Z,48.90
2024-01-31T12:03:38.681Z,48.50
2024-01-31T12:06:10.101Z,48.70
2024-01-31T12:08:43.361Z,48.40
2024-01-31T12:11:12.676Z,48.50
2024-01-31T12:13:49.199Z,48.30
2024-01-31T12:16:21.536Z,48.20
2024-01-31T12:19:01.519Z,48.10
2024-01-31T12:21:30.248Z,48.50
2024-01-31T12:23:59.611Z,48.60
2024-01-31T12:26:28.339Z,48.40
2024-01-31T12:28:58.047Z,48.20
2024-01-31T12:31:31.763Z,48.50
2024-01-31T12:34:04.306Z,48.70
2024-01-31T12:36:33.380Z,48.40
2024-01-31T12:39:01.910Z,48.40
2024-01-31T12:41:50.107Z,48.80
2024-01-31T12:44:20.210Z,48.40
2024-01-31T12:47:07.004Z,48.60
2024-01-31T12:49:39.926Z,48.10
2024-01-31T12:52:08.645Z,48.10
2024-01-31T12:54:37.551Z,48.30
2024-01-31T12:57:08.273Z,48.00
2024-01-31T12:59:40.107Z,48.10
2024-01-31T13:02:10.411Z,48.40
2024-01-31T13:04:39.187Z,48.30
2024-01-31T13:07:09.670Z,48.10
2024-01-31T13:09:39.842Z,48.00
2024-01-31T13:12:13.025Z,48.40
2024-01-31T13:14:46.082Z,48.10
2024-01-31T13:17:15.756Z,48.30
2024-01-31T13:19:44.954Z,48.00
2024-01-31T13:22:15.282Z,48.20
2024-01-31T13:24:43.892Z,48.10
2024-01-31T13:27:15.142Z,47.70
2024-01-31T13:29:47.271Z,47.80
2024-01-31T13:32:36.518Z,47.70
2024-01-31T13:35:05.308Z,47.70
2024-01-31T13:37:33.974Z,47.70
2024-01-31T13:40:03.384Z,47.80
2024-01-31T13:42:36.681Z,47.90
2024-01-31T13:45:08.097Z,48.00
2024-01-31T13:47:39.324Z,47.50
2024-01-31T13:50:09.202Z,47.50
2024-01-31T13:52:48.905Z,47.90
2024-01-31T13:55:17.523Z,47.50
2024-01-31T13:57:46.634Z,47.70
2024-01-31T14:00:15.849Z,47.50
2024-01-31T14:02:45.954Z,47.50
2024-01-31T14:05:21.283Z,47.70
2024-01-31T14:07:49.910Z,48.00
2024-01-31T14:10:18.982Z,47.70
2024-01-31T14:12:48.362Z,47.50
2024-01-31T14:15:17.446Z,47.80
2024-01-31T14:17:47.631Z,47.40
2024-01-31T14:20:17.274Z,47.30
2024-01-31T14:23:04.377Z,47.40
2024-01-31T14:25:44.482Z,47.10
2024-01-31T14:28:15.299Z,47.50
2024-01-31T14:30:43.651Z,47.30
2024-01-31T14:33:14.414Z,47.20
2024-01-31T14:35:45.872Z,47.40
2024-01-31T14:38:14.082Z,46.90
2024-01-31T14:40:42.380Z,47.20
2024-01-31T14:43:10.912Z,47.30
2024-01-31T14:45:39.115Z,47.30
2024-01-31T14:48:09.040Z,47.50
2024-01-31T14:50:38.944Z,47.20
2024-01-31T14:53:24.994Z,47.10
2024-01-31T14:55:53.337Z,47.10
2024-01-31T14:58:31.087Z,47.00
2024-01-31T15:01:03.039Z,47.20
2024-01-31T15:03:32.701Z,46.70
2024-01-31T15:06:17.876Z,46.70
2024-01-31T15:08:46.622Z,46.90
2024-01-31T15:11:14.922Z,46.60
2024-01-31T15:13:43.206Z,47.00
2024-01-31T15:16:27.793Z,47.00
2024-01-31T15:18:56.537Z,46.90
2024-01-31T15:21:26.552Z,46.90
2024-01-31T15:24:00.822Z,46.90
2024-01-31T15:26:29.824Z,46.90
2024-01-31T15:28:59.218Z,46.50
2024-01-31T15:31:29.154Z,46.80
2024-01-31T15:33:57.590Z,46.70
2024-01-31T15:36:28.589Z,46.70
2024-01-31T15:38:59.651Z,47.00
2024-01-31T15:41:28.774Z,46.80
2024-01-31T15:43:57.106Z,46.80
2024-01-31T15:46:28.344Z,46.40
2024-01-31T15:48:59.531Z,46.50
2024-01-31T15:51:30.695Z,47.00
2024-01-31T15:53:59.578Z,47.00
2024-01-31T15:56:28.544Z,46.80
2024-01-31T15:58:58.787Z,46.90
2024-01-31T16:01:28.257Z,47.10
2024-01-31T16:04:16.398Z,47.00
2024-01-31T16:06:52.645Z,46.90
2024-01-31T16:09:21.928Z,47.10
2024-01-31T16:11:51.558Z,46.70
2024-01-31T16:14:19.975Z,46.70
2024-01-31T16:16:49.158Z,46.90
2024-01-31T16:19:18.880Z,47.00
2024-01-31T16:22:08.155Z,46.80
2024-01-31T16:24:47.853Z,46.60
2024-01-31T16:27:16.104Z,46.50
2024-01-31T16:29:45.251Z,46.70
2024-01-31T16:32:13.798Z,46.60
2024-01-31T16:34:46.337Z,46.50
2024-01-31T16:37:22.376Z,46.30
2024-01-31T16:39:50.680Z,46.10
2024-01-31T16:42:19.726Z,46.20
2024-01-31T16:44:48.689Z,46.20
2024-01-31T16:47:17.154Z,46.10
2024-01-31T16:50:05.766Z,45.90
2024-01-31T16:52:47.701Z,45.70
2024-01-31T16:55:17.002Z,46.00
2024-01-31T16:58:05.817Z,45.50
2024-01-31T17:00:34.935Z,45.40
2024-01-31T17:03:08.844Z,45.60
2024-01-31T17:05:38.175Z,45.40
2024-01-31T17:08:09.737Z,45.40
2024-01-31T17:10:38.954Z,45.40
2024-01-31T17:13:07.688Z,45.60
2024-01-31T17:15:35.976Z,45.30
2024-01-31T17:18:05.218Z,45.50
2024-01-31T17:20:43.482Z,45.30
2024-01-31T17:23:14.330Z,45.30
2024-01-31T17:25:43.909Z,45.50
2024-01-31T17:28:15.290Z,45.20
2024-01-31T17:30:43.588Z,45.20
2024-01-31T17:33:15.917Z,45.20
2024-01-31T17:35:44.865Z,45.20
2024-01-31T17:38:15.206Z,45.10
2024-01-31T17:40:49.269Z,45.00
2024-01-31T17:43:18.021Z,45.00
2024-01-31T17:45:47.148Z,44.90
2024-01-31T17:48:16.597Z,45.00
2024-01-31T17:50:47.837Z,45.00
2024-01-31T17:53:17.906Z,44.80
2024-01-31T17:55:47.433Z,44.90
2024-01-31T17:58:16.413Z,45.00
2024-01-31T18:00:44.618Z,44.70
2024-01-31T18:03:13.654Z,44.80
2024-01-31T18:05:54.227Z,44.60
2024-01-31T18:08:26.557Z,44.70
2024-01-31T18:11:15.004Z,44.40
2024-01-31T18:13:49.529Z,44.80
2024-01-31T18:16:19.209Z,44.60
2024-01-31T18:18:47.516Z,44.90
2024-01-31T18:21:19.172Z,44.60
2024-01-31T18:24:02.834Z,44.70
2024-01-31T18:26:31.986Z,44.90
2024-01-31T18:29:06.527Z,44.90
2024-01-31T18:31:41.808Z,44.10
2024-01-31T18:34:29.770Z,44.30
2024-01-31T18:36:58.247Z,44.60
2024-01-31T18:39:39.279Z,44.70
2024-01-31T18:42:15.046Z,44.60
2024-01-31T18:44:44.680Z,44.60
2024-01-31T18:47:14.706Z,44.40
2024-01-31T18:49:43.196Z,44.40
2024-01-31T18:52:11.781Z,44.70
2024-01-31T18:54:44.407Z,44.70
2024-01-31T18:57:27.077Z,44.50
2024-01-31T18:59:55.558Z,44.70
2024-01-31T19:02:24.512Z,44.90
2024-01-31T19:05:12.510Z,44.80
2024-01-31T19:07:41.234Z,44.60
2024-01-31T19:10:15.693Z,44.80
2024-01-31T19:12:45.828Z,44.80
2024-01-31T19:15:35.349Z,45.00
2024-01-31T19:18:08.057Z,45.00
2024-01-31T19:20:50.219Z,45.00
2024-01-31T19:23:20.171Z,44.60
2024-01-31T19:25:50.202Z,44.60
2024-01-31T19:28:32.615Z,44.90
2024-01-31T19:31:01.316Z,44.90
2024-01-31T19:33:38.654Z,44.80
2024-01-31T19:36:08.420Z,45.10
2024-01-31T19:38:38.128Z,44.80
2024-01-31T19:41:08.271Z,45.20
2024-01-31T19:43:37.325Z,45.10
2024-01-31T19:46:06.435Z,45.20
2024-01-31T19:48:50.268Z,44.90
2024-01-31T19:51:19.858Z,45.30
2024-01-31T19:53:50.976Z,45.10
2024-01-31T19:56:22.046Z,45.10
2024-01-31T19:58:52.496Z,45.20
2024-01-31T20:01:21.564Z,45.10
2024-01-31T20:03:50.677Z,45.30
2024-01-31T20:06:19.528Z,45.30
2024-01-31T20:08:48.553Z,45.40
2024-01-31T20:11:17.572Z,45.60
2024-01-31T20:14:08.719Z,45.60
2024-01-31T20:16:49.419Z,45.50
2024-01-31T20:19:18.186Z,45.50
2024-01-31T20:21:46.901Z,45.60
2024-01-31T20:24:35.284Z,45.80
2024-01-31T20:27:03.712Z,45.40
2024-01-31T20:29:43.982Z,45.80
2024-01-31T20:32:17.090Z,45.60
2024-01-31T20:35:05.677Z,45.50
2024-01-31T20:37:34.189Z,45.90
2024-01-31T20:40:03.639Z,45.90
2024-01-31T20:42:46.004Z,46.20
2024-01-31T20:45:18.496Z,46.00
2024-01-31T20:47:49.045Z,46.30
2024-01-31T20:50:19.608Z,46.20
2024-01-31T20:53:09.857Z,46.30
2024-01-31T20:55:39.163Z,46.20
2024-01-31T20:58:07.566Z,46.50
2024-01-31T21:00:49.384Z,46.60
2024-01-31T21:03:26.456Z,46.10
2024-01-31T21:05:56.608Z,46.30
2024-01-31T21:08:28.397Z,46.50
2024-01-31T21:11:16.549Z,46.60
2024-01-31T21:13:49.219Z,46.40
2024-01-31T21:16:20.032Z,47.00
2024-01-31T21:18:48.289Z,47.30
2024-01-31T21:21:20.044Z,46.90
2024-01-31T21:23:48.352Z,46.90
2024-01-31T21:26:22.816Z,47.20
2024-01-31T21:28:51.112Z,47.30
2024-01-31T21:31:20.726Z,47.00
2024-01-31T21:34:08.881Z,47.50
2024-01-31T21:36:37.474Z,47.50
2024-01-31T21:39:07.535Z,47.60
2024-01-31T21:41:55.521Z,47.80
2024-01-31T21:44:24.861Z,47.90
2024-01-31T21:46:56.773Z,48.00
2024-01-31T21:49:25.568Z,47.90
2024-01-31T21:51:53.918Z,48.20
2024-01-31T21:54:22.412Z,48.30
2024-01-31T21:56:52.757Z,48.40
2024-01-31T21:59:40.565Z,48.50
2024-01-31T22:02:27.816Z,48.40
2024-01-31T22:04:58.295Z,48.60
2024-01-31T22:07:26.636Z,48.70
2024-01-31T22:09:54.896Z,49.10
2024-01-31T22:12:24.018Z,49.20
2024-01-31T22:14:52.798Z,49.10
2024-01-31T22:17:24.018Z,49.40
2024-01-31T22:19:54.627Z,49.50
2024-01-31T22:22:23.752Z,49.20
2024-01-31T22:24:55.869Z,49.30
2024-01-31T22:27:24.142Z,49.90
2024-01-31T22:29:53.471Z,49.60
2024-01-31T22:32:41.144Z,50.00
2024-01-31T22:35:11.542Z,49.50
2024-01-31T22:37:40.129Z,49.30
2024-01-31T22:40:09.522Z,49.40
2024-01-31T22:42:51.784Z,49.50
2024-01-31T22:45:26.474Z,49.50
2024-01-31T22:47:57.338Z,49.40
2024-01-31T22:50:27.086Z,49.50
2024-01-31T22:52:56.530Z,49.60
2024-01-31T22:55:44.730Z,49.70
2024-01-31T22:58:32.695Z,49.60
2024-01-31T23:01:02.503Z,49.70
2024-01-31T23:03:31.586Z,49.60
2024-01-31T23:06:03.805Z,49.50
2024-01-31T23:08:33.979Z,49.70
2024-01-31T23:11:20.265Z,50.00
2024-01-31T23:13:59.392Z,50.10
2024-01-31T23:16:28.710Z,49.70
2024-01-31T23:18:57.683Z,49.70
2024-01-31T23:21:27.555Z,50.00
2024-01-31T23:23:56.194Z,50.40
2024-01-31T23:26:24.818Z,50.30
2024-01-31T23:29:12.484Z,50.50
2024-01-31T23:31:42.328Z,50.20
2024-01-31T23:34:11.710Z,50.10
2024-01-31T23:36:41.578Z,50.60
2024-01-31T23:39:10.009Z,50.70
2024-01-31T23:41:38.603Z,50.40
2024-01-31T23:44:07.526Z,50.40
2024-01-31T23:46:36.109Z,51.00
2024-01-31T23:49:15.850Z,50.70
2024-01-31T23:51:47.951Z,50.90
2024-01-31T23:54:16.751Z,50.90
2024-01-31T23:56:45.037Z,51.10
2024-01-31T23:59:13.324Z,50.60
